WATT

Kupang/El Tari Airport

Airport
ICAO code
WATT
IATA Code
KOE
Summary
ICAO Region
APAC
ICAO Territory
Location

Kupang, Nusa Tenggara Timur

Serving
Kupang
Elevation
335 ft
Coordinates
10° 10' 18" S , 123° 40' 16" E
Metar
Observation
WATT 270830Z 31007KT 9999 SCT018 30/25 Q1005 NOSIG
Station
EL TARI
Date/Time
2023-01-27 08:30:00
Wind direction
310°
Wind speed
07 kts
Lowest cloud amount
scattered clouds
Temperature
30°C
Dew point
25°C
Humidity
74%
QNH
1005 hPa
Weather condition
n/a

El Tari International Airport is an airport in Kupang, East Nusa Tenggara, Indonesia.

Airport map

Aerial View

SKYbrary Partners:

Safety knowledge contributed by: